Terminal Aerodrome Forecast
Issued by NWS

Home | Current Version | Previous Version | Text Only | Print | Product List | Glossary On
Versions: 1 2 3 4 5 6 7 8 9 10 11 12 13 14 15 16
758
FTUS43 KLSX 021732
TAFUIN
TAF
KUIN 021732Z 0218/0318 31008KT P6SM SCT025
      TEMPO 0218/0222 BKN025
     FM030000 VRB03KT P6SM SCT025
     FM030900 VRB03KT P6SM BKN028
     FM031300 VRB03KT P6SM BKN100=

USA.gov is the U.S. government's official web portal to all federal, state and local government web resources and services.